Terminal Aerodrome Forecast
Issued by NWS Blacksburg, VA

Home | Current Version | Previous Version | Text Only | Print | Product List | Glossary On
Versions: 1 2 3 4 5 6 7 8 9 10 11 12 13 14 15 16 17 18 19 20 21 22 23 24 25 26 27 28 29 30 31 32 33 34 35 36 37 38 39 40 41 42 43 44 45 46 47 48 49 50
000
FTUS41 KRNK 040226 AAA
TAFLYH
TAF AMD
KLYH 040226Z 0402/0424 00000KT P6SM SCT070
     FM040500 VRB03KT 5SM BR BKN080
      TEMPO 0409/0411 1/2SM FG OVC002
     FM041300 32004KT P6SM OVC070
     FM041700 26005KT P6SM BKN050=

USA.gov is the U.S. government's official web portal to all federal, state and local government web resources and services.